sensor_id;sensor_type;location;lat;lon;timestamp;pressure;altitude;pressure_sealevel;temperature;humidity
62948;BME280;51940;52.126;-0.994;2023-02-17T00:00:06;100773.88;;;8.39;100.00
62948;BME280;51940;52.126;-0.994;2023-02-17T00:02:33;100768.69;;;8.42;100.00
62948;BME280;51940;52.126;-0.994;2023-02-17T00:04:59;100766.70;;;8.45;100.00
62948;BME280;51940;52.126;-0.994;2023-02-17T00:07:24;100767.93;;;8.48;100.00
62948;BME280;51940;52.126;-0.994;2023-02-17T00:09:56;100765.77;;;8.51;100.00
62948;BME280;51940;52.126;-0.994;2023-02-17T00:12:22;100765.94;;;8.51;100.00
62948;BME280;51940;52.126;-0.994;2023-02-17T00:14:47;100760.60;;;8.52;100.00
62948;BME280;51940;52.126;-0.994;2023-02-17T00:17:13;100757.05;;;8.51;100.00
62948;BME280;51940;52.126;-0.994;2023-02-17T00:19:38;100747.63;;;8.51;100.00
62948;BME280;51940;52.126;-0.994;2023-02-17T00:22:03;100749.05;;;8.51;100.00
62948;BME280;51940;52.126;-0.994;2023-02-17T00:24:33;100747.09;;;8.51;100.00
62948;BME280;51940;52.126;-0.994;2023-02-17T00:26:58;100754.40;;;8.50;100.00
62948;BME280;51940;52.126;-0.994;2023-02-17T00:29:24;100760.64;;;8.48;100.00
62948;BME280;51940;52.126;-0.994;2023-02-17T00:31:52;100762.25;;;8.47;100.00
62948;BME280;51940;52.126;-0.994;2023-02-17T00:34:18;100763.51;;;8.46;100.00
62948;BME280;51940;52.126;-0.994;2023-02-17T00:36:44;100759.77;;;8.46;100.00
62948;BME280;51940;52.126;-0.994;2023-02-17T00:39:13;100759.40;;;8.45;100.00
62948;BME280;51940;52.126;-0.994;2023-02-17T00:41:38;100760.66;;;8.46;100.00
62948;BME280;51940;52.126;-0.994;2023-02-17T00:44:04;100756.58;;;8.46;100.00
62948;BME280;51940;52.126;-0.994;2023-02-17T00:46:29;100758.70;;;8.46;100.00
62948;BME280;51940;52.126;-0.994;2023-02-17T00:48:55;100758.70;;;8.47;100.00
62948;BME280;51940;52.126;-0.994;2023-02-17T00:51:21;100761.01;;;8.47;100.00
62948;BME280;51940;52.126;-0.994;2023-02-17T00:53:47;100761.52;;;8.49;100.00
62948;BME280;51940;52.126;-0.994;2023-02-17T00:56:13;100758.83;;;8.51;100.00
62948;BME280;51940;52.126;-0.994;2023-02-17T00:58:39;100751.33;;;8.54;100.00
62948;BME280;51940;52.126;-0.994;2023-02-17T01:01:06;100747.77;;;8.56;100.00
62948;BME280;51940;52.126;-0.994;2023-02-17T01:03:32;100745.42;;;8.58;100.00
62948;BME280;51940;52.126;-0.994;2023-02-17T01:05:58;100745.92;;;8.61;100.00
62948;BME280;51940;52.126;-0.994;2023-02-17T01:08:23;100750.68;;;8.66;100.00
62948;BME280;51940;52.126;-0.994;2023-02-17T01:10:51;100753.11;;;8.70;100.00
62948;BME280;51940;52.126;-0.994;2023-02-17T01:13:17;100754.35;;;8.73;100.00
62948;BME280;51940;52.126;-0.994;2023-02-17T01:15:46;100752.19;;;8.75;100.00
62948;BME280;51940;52.126;-0.994;2023-02-17T01:18:13;100741.80;;;8.80;100.00
62948;BME280;51940;52.126;-0.994;2023-02-17T01:20:39;100738.41;;;8.83;100.00
62948;BME280;51940;52.126;-0.994;2023-02-17T01:23:06;100736.20;;;8.87;100.00
62948;BME280;51940;52.126;-0.994;2023-02-17T01:25:37;100734.23;;;8.91;100.00
62948;BME280;51940;52.126;-0.994;2023-02-17T01:28:04;100737.02;;;8.94;100.00
62948;BME280;51940;52.126;-0.994;2023-02-17T01:30:29;100740.19;;;8.97;100.00
62948;BME280;51940;52.126;-0.994;2023-02-17T01:32:55;100731.08;;;9.00;100.00
62948;BME280;51940;52.126;-0.994;2023-02-17T01:35:20;100730.85;;;9.03;100.00
62948;BME280;51940;52.126;-0.994;2023-02-17T01:37:46;100731.90;;;9.04;100.00
62948;BME280;51940;52.126;-0.994;2023-02-17T01:40:15;100733.84;;;9.07;100.00
62948;BME280;51940;52.126;-0.994;2023-02-17T01:42:41;100736.67;;;9.08;100.00
62948;BME280;51940;52.126;-0.994;2023-02-17T01:50:17;100750.39;;;9.08;100.00
62948;BME280;51940;52.126;-0.994;2023-02-17T01:52:45;100751.63;;;9.09;100.00
62948;BME280;51940;52.126;-0.994;2023-02-17T01:55:14;100755.73;;;9.08;100.00
62948;BME280;51940;52.126;-0.994;2023-02-17T01:57:43;100753.95;;;9.08;100.00
62948;BME280;51940;52.126;-0.994;2023-02-17T02:00:11;100756.98;;;9.07;100.00
62948;BME280;51940;52.126;-0.994;2023-02-17T02:02:39;100754.86;;;9.07;100.00
62948;BME280;51940;52.126;-0.994;2023-02-17T02:05:06;100752.36;;;9.07;100.00
62948;BME280;51940;52.126;-0.994;2023-02-17T02:07:34;100752.71;;;9.07;100.00
62948;BME280;51940;52.126;-0.994;2023-02-17T02:10:01;100747.38;;;9.04;100.00
62948;BME280;51940;52.126;-0.994;2023-02-17T02:12:30;100742.98;;;9.01;100.00
62948;BME280;51940;52.126;-0.994;2023-02-17T02:15:22;100752.63;;;8.98;100.00
62948;BME280;51940;52.126;-0.994;2023-02-17T02:34:02;100752.70;;;8.76;100.00
62948;BME280;51940;52.126;-0.994;2023-02-17T02:36:43;100752.57;;;8.72;100.00
62948;BME280;51940;52.126;-0.994;2023-02-17T02:39:22;100747.81;;;8.67;100.00
62948;BME280;51940;52.126;-0.994;2023-02-17T02:41:57;100738.96;;;8.64;100.00
62948;BME280;51940;52.126;-0.994;2023-02-17T02:44:24;100739.16;;;8.61;100.00
62948;BME280;51940;52.126;-0.994;2023-02-17T02:47:01;100737.41;;;8.60;100.00
62948;BME280;51940;52.126;-0.994;2023-02-17T02:49:28;100735.85;;;8.57;100.00
62948;BME280;51940;52.126;-0.994;2023-02-17T02:54:51;100726.27;;;8.53;100.00
62948;BME280;51940;52.126;-0.994;2023-02-17T02:57:38;100722.38;;;8.51;100.00
62948;BME280;51940;52.126;-0.994;2023-02-17T03:00:17;100726.69;;;8.48;100.00
62948;BME280;51940;52.126;-0.994;2023-02-17T03:03:09;100731.49;;;8.47;100.00
62948;BME280;51940;52.126;-0.994;2023-02-17T03:08:18;100716.04;;;8.45;100.00
62948;BME280;51940;52.126;-0.994;2023-02-17T03:10:50;100719.08;;;8.43;100.00
62948;BME280;51940;52.126;-0.994;2023-02-17T03:13:18;100724.08;;;8.42;100.00
62948;BME280;51940;52.126;-0.994;2023-02-17T03:15:44;100732.27;;;8.41;100.00
62948;BME280;51940;52.126;-0.994;2023-02-17T03:18:10;100734.40;;;8.41;100.00
62948;BME280;51940;52.126;-0.994;2023-02-17T03:20:44;100735.31;;;8.39;100.00
62948;BME280;51940;52.126;-0.994;2023-02-17T03:23:12;100734.60;;;8.39;100.00
62948;BME280;51940;52.126;-0.994;2023-02-17T03:25:37;100730.16;;;8.38;100.00
62948;BME280;51940;52.126;-0.994;2023-02-17T03:28:03;100719.49;;;8.37;100.00
62948;BME280;51940;52.126;-0.994;2023-02-17T03:30:28;100720.04;;;8.36;100.00
62948;BME280;51940;52.126;-0.994;2023-02-17T03:32:54;100718.27;;;8.35;100.00
62948;BME280;51940;52.126;-0.994;2023-02-17T03:35:19;100718.27;;;8.35;100.00
62948;BME280;51940;52.126;-0.994;2023-02-17T03:37:44;100726.43;;;8.34;100.00
62948;BME280;51940;52.126;-0.994;2023-02-17T03:40:10;100726.64;;;8.32;100.00
62948;BME280;51940;52.126;-0.994;2023-02-17T03:42:35;100730.55;;;8.31;100.00
62948;BME280;51940;52.126;-0.994;2023-02-17T03:45:01;100733.22;;;8.31;100.00
62948;BME280;51940;52.126;-0.994;2023-02-17T03:47:27;100731.64;;;8.30;100.00
62948;BME280;51940;52.126;-0.994;2023-02-17T03:49:52;100726.13;;;8.29;100.00
62948;BME280;51940;52.126;-0.994;2023-02-17T03:52:18;100726.48;;;8.28;100.00
62948;BME280;51940;52.126;-0.994;2023-02-17T03:54:43;100724.89;;;8.27;100.00
62948;BME280;51940;52.126;-0.994;2023-02-17T03:57:09;100721.53;;;8.26;100.00
62948;BME280;51940;52.126;-0.994;2023-02-17T03:59:35;100728.46;;;8.26;100.00
62948;BME280;51940;52.126;-0.994;2023-02-17T04:02:01;100730.08;;;8.25;100.00
62948;BME280;51940;52.126;-0.994;2023-02-17T04:04:26;100734.00;;;8.24;100.00
62948;BME280;51940;52.126;-0.994;2023-02-17T04:06:52;100739.52;;;8.22;100.00
62948;BME280;51940;52.126;-0.994;2023-02-17T04:09:17;100734.55;;;8.22;100.00
62948;BME280;51940;52.126;-0.994;2023-02-17T04:11:43;100727.80;;;8.22;100.00
62948;BME280;51940;52.126;-0.994;2023-02-17T04:14:08;100726.38;;;8.22;100.00
62948;BME280;51940;52.126;-0.994;2023-02-17T04:16:34;100727.45;;;8.21;100.00
62948;BME280;51940;52.126;-0.994;2023-02-17T04:18:59;100728.16;;;8.20;100.00
62948;BME280;51940;52.126;-0.994;2023-02-17T04:21:25;100729.40;;;8.19;100.00
62948;BME280;51940;52.126;-0.994;2023-02-17T04:23:50;100725.86;;;8.18;100.00
62948;BME280;51940;52.126;-0.994;2023-02-17T04:26:16;100733.70;;;8.16;100.00
62948;BME280;51940;52.126;-0.994;2023-02-17T04:28:41;100731.77;;;8.15;100.00
62948;BME280;51940;52.126;-0.994;2023-02-17T04:31:07;100728.05;;;8.13;100.00
62948;BME280;51940;52.126;-0.994;2023-02-17T04:33:33;100732.86;;;8.12;100.00
62948;BME280;51940;52.126;-0.994;2023-02-17T04:35:59;100737.48;;;8.12;100.00
62948;BME280;51940;52.126;-0.994;2023-02-17T04:38:28;100733.39;;;8.12;100.00
62948;BME280;51940;52.126;-0.994;2023-02-17T04:40:55;100735.71;;;8.12;100.00
62948;BME280;51940;52.126;-0.994;2023-02-17T04:43:22;100736.95;;;8.12;100.00
62948;BME280;51940;52.126;-0.994;2023-02-17T04:45:48;100732.86;;;8.13;100.00
62948;BME280;51940;52.126;-0.994;2023-02-17T04:48:13;100733.38;;;8.13;100.00
62948;BME280;51940;52.126;-0.994;2023-02-17T04:50:39;100737.98;;;8.15;100.00
62948;BME280;51940;52.126;-0.994;2023-02-17T04:53:04;100733.55;;;8.15;100.00
62948;BME280;51940;52.126;-0.994;2023-02-17T04:55:30;100739.75;;;8.15;100.00
62948;BME280;51940;52.126;-0.994;2023-02-17T04:57:55;100731.40;;;8.15;100.00
62948;BME280;51940;52.126;-0.994;2023-02-17T05:00:22;100729.27;;;8.15;100.00
62948;BME280;51940;52.126;-0.994;2023-02-17T05:02:47;100733.01;;;8.16;100.00
62948;BME280;51940;52.126;-0.994;2023-02-17T05:05:12;100726.08;;;8.15;100.00
62948;BME280;51940;52.126;-0.994;2023-02-17T05:07:41;100724.48;;;8.15;100.00
62948;BME280;51940;52.126;-0.994;2023-02-17T05:10:07;100718.45;;;8.15;100.00
62948;BME280;51940;52.126;-0.994;2023-02-17T05:12:33;100720.93;;;8.15;100.00
62948;BME280;51940;52.126;-0.994;2023-02-17T05:14:59;100721.12;;;8.14;100.00
62948;BME280;51940;52.126;-0.994;2023-02-17T05:17:25;100722.19;;;8.14;100.00
62948;BME280;51940;52.126;-0.994;2023-02-17T05:19:50;100727.70;;;8.14;100.00
62948;BME280;51940;52.126;-0.994;2023-02-17T05:22:16;100725.58;;;8.13;100.00
62948;BME280;51940;52.126;-0.994;2023-02-17T05:24:41;100723.45;;;8.12;100.00
62948;BME280;51940;52.126;-0.994;2023-02-17T05:27:07;100719.17;;;8.11;100.00
62948;BME280;51940;52.126;-0.994;2023-02-17T05:29:32;100718.11;;;8.11;100.00
62948;BME280;51940;52.126;-0.994;2023-02-17T05:31:58;100713.67;;;8.09;100.00
62948;BME280;51940;52.126;-0.994;2023-02-17T05:34:23;100710.65;;;8.11;100.00
62948;BME280;51940;52.126;-0.994;2023-02-17T05:36:48;100709.93;;;8.10;100.00
62948;BME280;51940;52.126;-0.994;2023-02-17T05:39:14;100708.88;;;8.10;100.00
62948;BME280;51940;52.126;-0.994;2023-02-17T05:41:39;100710.83;;;8.11;100.00
62948;BME280;51940;52.126;-0.994;2023-02-17T05:44:04;100709.41;;;8.10;100.00
62948;BME280;51940;52.126;-0.994;2023-02-17T05:46:30;100706.76;;;8.09;100.00
62948;BME280;51940;52.126;-0.994;2023-02-17T05:48:55;100699.12;;;8.09;100.00
62948;BME280;51940;52.126;-0.994;2023-02-17T05:51:21;100696.83;;;8.08;100.00
62948;BME280;51940;52.126;-0.994;2023-02-17T05:53:46;100692.75;;;8.07;100.00
62948;BME280;51940;52.126;-0.994;2023-02-17T05:56:11;100689.73;;;8.07;100.00
62948;BME280;51940;52.126;-0.994;2023-02-17T05:58:37;100689.56;;;8.06;100.00
62948;BME280;51940;52.126;-0.994;2023-02-17T06:01:07;100691.34;;;8.06;100.00
62948;BME280;51940;52.126;-0.994;2023-02-17T06:03:32;100698.10;;;8.06;100.00
62948;BME280;51940;52.126;-0.994;2023-02-17T06:05:58;100695.98;;;8.05;100.00
62948;BME280;51940;52.126;-0.994;2023-02-17T06:08:23;100691.36;;;8.05;100.00
62948;BME280;51940;52.126;-0.994;2023-02-17T06:10:48;100688.15;;;8.06;100.00
62948;BME280;51940;52.126;-0.994;2023-02-17T06:13:16;100683.54;;;8.06;100.00
62948;BME280;51940;52.126;-0.994;2023-02-17T06:15:41;100685.84;;;8.06;100.00
62948;BME280;51940;52.126;-0.994;2023-02-17T06:18:07;100687.08;;;8.06;100.00
62948;BME280;51940;52.126;-0.994;2023-02-17T06:20:32;100693.64;;;8.06;100.00
62948;BME280;51940;52.126;-0.994;2023-02-17T06:22:57;100697.73;;;8.06;100.00
62948;BME280;51940;52.126;-0.994;2023-02-17T06:25:23;100703.05;;;8.07;100.00
62948;BME280;51940;52.126;-0.994;2023-02-17T06:27:48;100703.38;;;8.09;100.00
62948;BME280;51940;52.126;-0.994;2023-02-17T06:30:14;100702.64;;;8.11;100.00
62948;BME280;51940;52.126;-0.994;2023-02-17T06:32:39;100702.81;;;8.14;100.00
62948;BME280;51940;52.126;-0.994;2023-02-17T06:35:05;100706.33;;;8.17;100.00
62948;BME280;51940;52.126;-0.994;2023-02-17T06:37:31;100711.46;;;8.19;100.00
62948;BME280;51940;52.126;-0.994;2023-02-17T06:39:56;100711.98;;;8.23;100.00
62948;BME280;51940;52.126;-0.994;2023-02-17T06:42:21;100710.85;;;8.27;100.00
62948;BME280;51940;52.126;-0.994;2023-02-17T06:44:47;100696.45;;;8.30;100.00
62948;BME280;51940;52.126;-0.994;2023-02-17T06:47:12;100694.64;;;8.33;100.00
62948;BME280;51940;52.126;-0.994;2023-02-17T06:49:38;100701.02;;;8.37;100.00
62948;BME280;51940;52.126;-0.994;2023-02-17T06:52:03;100708.29;;;8.40;100.00
62948;BME280;51940;52.126;-0.994;2023-02-17T06:54:29;100722.62;;;8.44;100.00
62948;BME280;51940;52.126;-0.994;2023-02-17T06:56:54;100731.48;;;8.48;100.00
62948;BME280;51940;52.126;-0.994;2023-02-17T06:59:19;100735.89;;;8.51;100.00
62948;BME280;51940;52.126;-0.994;2023-02-17T07:01:45;100736.39;;;8.55;100.00
62948;BME280;51940;52.126;-0.994;2023-02-17T07:04:13;100736.16;;;8.60;100.00
62948;BME280;51940;52.126;-0.994;2023-02-17T07:06:38;100744.48;;;8.62;100.00
62948;BME280;51940;52.126;-0.994;2023-02-17T07:09:04;100750.70;;;8.65;100.00
62948;BME280;51940;52.126;-0.994;2023-02-17T07:11:29;100748.54;;;8.67;100.00
62948;BME280;51940;52.126;-0.994;2023-02-17T07:13:58;100747.44;;;8.69;100.00
62948;BME280;51940;52.126;-0.994;2023-02-17T07:16:24;100742.98;;;8.71;100.00
62948;BME280;51940;52.126;-0.994;2023-02-17T07:18:50;100738.70;;;8.71;100.00
62948;BME280;51940;52.126;-0.994;2023-02-17T07:21:16;100733.18;;;8.73;100.00
62948;BME280;51940;52.126;-0.994;2023-02-17T07:23:41;100738.67;;;8.75;100.00
62948;BME280;51940;52.126;-0.994;2023-02-17T07:26:10;100745.04;;;8.77;100.00
62948;BME280;51940;52.126;-0.994;2023-02-17T07:28:37;100746.06;;;8.80;100.00
62948;BME280;51940;52.126;-0.994;2023-02-17T07:31:08;100756.02;;;8.83;100.00
62948;BME280;51940;52.126;-0.994;2023-02-17T07:33:34;100766.80;;;8.87;100.00
62948;BME280;51940;52.126;-0.994;2023-02-17T07:36:05;100765.73;;;8.89;100.00
62948;BME280;51940;52.126;-0.994;2023-02-17T07:38:30;100766.40;;;8.92;100.00
62948;BME280;51940;52.126;-0.994;2023-02-17T07:40:56;100758.02;;;8.94;100.00
62948;BME280;51940;52.126;-0.994;2023-02-17T07:43:21;100759.05;;;8.97;100.00
62948;BME280;51940;52.126;-0.994;2023-02-17T07:45:46;100758.30;;;9.00;100.00
62948;BME280;51940;52.126;-0.994;2023-02-17T07:48:12;100755.74;;;9.04;100.00
62948;BME280;51940;52.126;-0.994;2023-02-17T07:50:37;100759.09;;;9.09;100.00
62948;BME280;51940;52.126;-0.994;2023-02-17T07:53:02;100748.02;;;9.12;100.00
62948;BME280;51940;52.126;-0.994;2023-02-17T07:55:28;100747.08;;;9.14;100.00
62948;BME280;51940;52.126;-0.994;2023-02-17T07:57:54;100746.52;;;9.17;100.00
62948;BME280;51940;52.126;-0.994;2023-02-17T08:00:19;100758.39;;;9.21;100.00
62948;BME280;51940;52.126;-0.994;2023-02-17T08:02:45;100763.71;;;9.22;100.00
62948;BME280;51940;52.126;-0.994;2023-02-17T08:05:10;100767.60;;;9.25;100.00
62948;BME280;51940;52.126;-0.994;2023-02-17T08:07:36;100764.54;;;9.28;100.00
62948;BME280;51940;52.126;-0.994;2023-02-17T08:10:02;100765.77;;;9.29;100.00
62948;BME280;51940;52.126;-0.994;2023-02-17T08:12:46;100765.92;;;9.31;100.00
62948;BME280;51940;52.126;-0.994;2023-02-17T08:15:34;100769.45;;;9.33;100.00
62948;BME280;51940;52.126;-0.994;2023-02-17T08:18:00;100773.52;;;9.35;100.00
62948;BME280;51940;52.126;-0.994;2023-02-17T08:20:26;100774.38;;;9.37;100.00
62948;BME280;51940;52.126;-0.994;2023-02-17T08:22:52;100769.55;;;9.39;100.00
62948;BME280;51940;52.126;-0.994;2023-02-17T08:25:17;100768.82;;;9.42;100.00
62948;BME280;51940;52.126;-0.994;2023-02-17T08:27:44;100761.83;;;9.44;100.00
62948;BME280;51940;52.126;-0.994;2023-02-17T08:30:10;100756.98;;;9.46;100.00
62948;BME280;51940;52.126;-0.994;2023-02-17T08:32:37;100756.77;;;9.50;100.00
62948;BME280;51940;52.126;-0.994;2023-02-17T08:35:03;100759.94;;;9.52;100.00
62948;BME280;51940;52.126;-0.994;2023-02-17T08:37:29;100759.52;;;9.57;100.00
62948;BME280;51940;52.126;-0.994;2023-02-17T08:39:56;100763.93;;;9.60;100.00
62948;BME280;51940;52.126;-0.994;2023-02-17T08:42:25;100758.69;;;9.64;100.00
62948;BME280;51940;52.126;-0.994;2023-02-17T08:44:51;100752.59;;;9.69;100.00
62948;BME280;51940;52.126;-0.994;2023-02-17T08:47:16;100758.39;;;9.73;100.00
62948;BME280;51940;52.126;-0.994;2023-02-17T08:49:41;100757.45;;;9.77;100.00
62948;BME280;51940;52.126;-0.994;2023-02-17T08:52:07;100754.71;;;9.81;100.00
62948;BME280;51940;52.126;-0.994;2023-02-17T08:54:32;100751.61;;;9.86;100.00
62948;BME280;51940;52.126;-0.994;2023-02-17T08:56:58;100748.83;;;9.93;100.00
62948;BME280;51940;52.126;-0.994;2023-02-17T08:59:23;100756.20;;;10.00;100.00
62948;BME280;51940;52.126;-0.994;2023-02-17T09:01:49;100751.47;;;10.06;100.00
62948;BME280;51940;52.126;-0.994;2023-02-17T09:04:15;100750.31;;;10.11;100.00
62948;BME280;51940;52.126;-0.994;2023-02-17T09:06:47;100736.65;;;10.18;100.00
62948;BME280;51940;52.126;-0.994;2023-02-17T09:09:15;100736.54;;;10.27;100.00
62948;BME280;51940;52.126;-0.994;2023-02-17T09:11:41;100735.84;;;10.36;100.00
62948;BME280;51940;52.126;-0.994;2023-02-17T09:14:07;100724.81;;;10.44;100.00
62948;BME280;51940;52.126;-0.994;2023-02-17T09:16:33;100727.52;;;10.53;100.00
62948;BME280;51940;52.126;-0.994;2023-02-17T09:18:58;100735.38;;;10.62;100.00
62948;BME280;51940;52.126;-0.994;2023-02-17T09:21:24;100740.98;;;10.67;100.00
62948;BME280;51940;52.126;-0.994;2023-02-17T09:23:50;100737.66;;;10.72;100.00
62948;BME280;51940;52.126;-0.994;2023-02-17T09:26:17;100739.88;;;10.78;100.00
62948;BME280;51940;52.126;-0.994;2023-02-17T09:28:45;100743.27;;;10.88;100.00
62948;BME280;51940;52.126;-0.994;2023-02-17T09:31:14;100744.69;;;10.96;100.00
62948;BME280;51940;52.126;-0.994;2023-02-17T09:33:41;100742.02;;;11.05;100.00
62948;BME280;51940;52.126;-0.994;2023-02-17T09:36:09;100744.34;;;11.13;100.00
62948;BME280;51940;52.126;-0.994;2023-02-17T09:38:37;100748.12;;;11.20;100.00
62948;BME280;51940;52.126;-0.994;2023-02-17T09:41:26;100755.65;;;11.27;100.00
62948;BME280;51940;52.126;-0.994;2023-02-17T09:43:53;100761.77;;;11.34;100.00
62948;BME280;51940;52.126;-0.994;2023-02-17T09:46:46;100761.70;;;11.38;100.00
62948;BME280;51940;52.126;-0.994;2023-02-17T09:49:20;100761.48;;;11.40;100.00
62948;BME280;51940;52.126;-0.994;2023-02-17T09:52:06;100761.60;;;11.41;100.00
62948;BME280;51940;52.126;-0.994;2023-02-17T09:54:39;100767.29;;;11.43;100.00
62948;BME280;51940;52.126;-0.994;2023-02-17T09:57:07;100770.09;;;11.45;100.00
62948;BME280;51940;52.126;-0.994;2023-02-17T09:59:43;100776.14;;;11.47;100.00
62948;BME280;51940;52.126;-0.994;2023-02-17T10:02:18;100771.26;;;11.49;100.00
62948;BME280;51940;52.126;-0.994;2023-02-17T10:04:47;100771.34;;;11.52;100.00
62948;BME280;51940;52.126;-0.994;2023-02-17T10:07:18;100768.62;;;11.55;100.00
62948;BME280;51940;52.126;-0.994;2023-02-17T10:12:24;100771.33;;;11.61;100.00
62948;BME280;51940;52.126;-0.994;2023-02-17T10:15:00;100775.57;;;11.65;100.00
62948;BME280;51940;52.126;-0.994;2023-02-17T10:20:46;100787.58;;;11.70;100.00
62948;BME280;51940;52.126;-0.994;2023-02-17T10:23:24;100782.89;;;11.73;100.00
62948;BME280;51940;52.126;-0.994;2023-02-17T10:34:04;100791.45;;;11.74;100.00
62948;BME280;51940;52.126;-0.994;2023-02-17T10:36:56;100788.48;;;11.77;100.00
62948;BME280;51940;52.126;-0.994;2023-02-17T10:39:44;100787.54;;;11.82;100.00
62948;BME280;51940;52.126;-0.994;2023-02-17T10:42:37;100785.27;;;11.88;100.00
62948;BME280;51940;52.126;-0.994;2023-02-17T10:45:09;100790.38;;;11.91;100.00
62948;BME280;51940;52.126;-0.994;2023-02-17T10:47:37;100786.86;;;11.96;100.00
62948;BME280;51940;52.126;-0.994;2023-02-17T10:50:07;100774.73;;;12.02;100.00
62948;BME280;51940;52.126;-0.994;2023-02-17T10:52:40;100766.06;;;12.06;100.00
62948;BME280;51940;52.126;-0.994;2023-02-17T10:55:19;100758.02;;;12.12;100.00
62948;BME280;51940;52.126;-0.994;2023-02-17T10:57:49;100756.03;;;12.20;100.00
62948;BME280;51940;52.126;-0.994;2023-02-17T11:00:17;100771.50;;;12.24;100.00
62948;BME280;51940;52.126;-0.994;2023-02-17T11:02:46;100769.73;;;12.30;100.00
62948;BME280;51940;52.126;-0.994;2023-02-17T11:05:33;100779.60;;;12.36;100.00
62948;BME280;51940;52.126;-0.994;2023-02-17T11:08:13;100777.11;;;12.43;100.00
62948;BME280;51940;52.126;-0.994;2023-02-17T11:11:01;100784.64;;;12.49;100.00
62948;BME280;51940;52.126;-0.994;2023-02-17T11:15:59;100792.38;;;12.61;100.00
62948;BME280;51940;52.126;-0.994;2023-02-17T11:18:27;100794.79;;;12.65;100.00
62948;BME280;51940;52.126;-0.994;2023-02-17T11:21:08;100798.20;;;12.71;100.00
62948;BME280;51940;52.126;-0.994;2023-02-17T11:23:34;100800.88;;;12.78;100.00
62948;BME280;51940;52.126;-0.994;2023-02-17T11:26:07;100801.27;;;12.84;100.00
62948;BME280;51940;52.126;-0.994;2023-02-17T11:28:33;100794.48;;;12.90;100.00
62948;BME280;51940;52.126;-0.994;2023-02-17T11:30:59;100800.17;;;12.97;100.00
62948;BME280;51940;52.126;-0.994;2023-02-17T11:33:35;100805.85;;;13.00;100.00
62948;BME280;51940;52.126;-0.994;2023-02-17T11:36:06;100807.73;;;13.03;100.00
62948;BME280;51940;52.126;-0.994;2023-02-17T11:38:43;100809.29;;;13.05;100.00
62948;BME280;51940;52.126;-0.994;2023-02-17T11:41:26;100818.52;;;13.08;100.00
62948;BME280;51940;52.126;-0.994;2023-02-17T11:43:54;100812.69;;;13.11;100.00
62948;BME280;51940;52.126;-0.994;2023-02-17T11:49:27;100827.05;;;13.24;100.00
62948;BME280;51940;52.126;-0.994;2023-02-17T11:57:43;100849.55;;;13.34;100.00
62948;BME280;51940;52.126;-0.994;2023-02-17T12:06:13;100857.85;;;13.43;100.00
62948;BME280;51940;52.126;-0.994;2023-02-17T12:11:58;100867.09;;;13.53;100.00
62948;BME280;51940;52.126;-0.994;2023-02-17T12:17:53;100875.21;;;13.50;100.00
62948;BME280;51940;52.126;-0.994;2023-02-17T12:26:14;100897.30;;;13.55;100.00
62948;BME280;51940;52.126;-0.994;2023-02-17T12:29:01;100890.56;;;13.59;100.00
62948;BME280;51940;52.126;-0.994;2023-02-17T12:34:33;100891.80;;;13.66;100.00
62948;BME280;51940;52.126;-0.994;2023-02-17T12:37:05;100896.98;;;13.66;100.00
62948;BME280;51940;52.126;-0.994;2023-02-17T12:39:42;100901.27;;;13.68;100.00
62948;BME280;51940;52.126;-0.994;2023-02-17T12:42:17;100904.27;;;13.69;100.00
62948;BME280;51940;52.126;-0.994;2023-02-17T12:44:54;100913.55;;;13.71;100.00
62948;BME280;51940;52.126;-0.994;2023-02-17T12:47:23;100924.54;;;13.69;100.00
62948;BME280;51940;52.126;-0.994;2023-02-17T12:49:56;100932.41;;;13.69;100.00
62948;BME280;51940;52.126;-0.994;2023-02-17T12:52:37;100935.33;;;13.74;100.00
62948;BME280;51940;52.126;-0.994;2023-02-17T12:55:12;100937.17;;;13.78;100.00
62948;BME280;51940;52.126;-0.994;2023-02-17T12:57:48;100932.02;;;13.77;100.00
62948;BME280;51940;52.126;-0.994;2023-02-17T13:02:58;100931.17;;;13.75;100.00
62948;BME280;51940;52.126;-0.994;2023-02-17T13:05:28;100929.91;;;13.75;100.00
62948;BME280;51940;52.126;-0.994;2023-02-17T13:11:02;100932.59;;;13.81;100.00
62948;BME280;51940;52.126;-0.994;2023-02-17T13:13:30;100935.38;;;13.84;100.00
62948;BME280;51940;52.126;-0.994;2023-02-17T13:18:35;100937.89;;;13.90;100.00
62948;BME280;51940;52.126;-0.994;2023-02-17T13:21:24;100931.42;;;13.91;100.00
62948;BME280;51940;52.126;-0.994;2023-02-17T13:24:11;100931.38;;;13.92;100.00
62948;BME280;51940;52.126;-0.994;2023-02-17T13:26:41;100936.17;;;13.94;100.00
62948;BME280;51940;52.126;-0.994;2023-02-17T13:31:59;100934.95;;;13.93;100.00
62948;BME280;51940;52.126;-0.994;2023-02-17T13:34:40;100936.39;;;13.93;100.00
62948;BME280;51940;52.126;-0.994;2023-02-17T13:39:56;100939.14;;;13.90;100.00
62948;BME280;51940;52.126;-0.994;2023-02-17T13:42:45;100939.86;;;13.90;100.00
62948;BME280;51940;52.126;-0.994;2023-02-17T13:45:37;100937.35;;;13.90;100.00
62948;BME280;51940;52.126;-0.994;2023-02-17T13:50:53;100938.57;;;13.98;100.00
62948;BME280;51940;52.126;-0.994;2023-02-17T13:55:49;100942.35;;;14.04;100.00
62948;BME280;51940;52.126;-0.994;2023-02-17T13:58:21;100952.05;;;14.08;100.00
62948;BME280;51940;52.126;-0.994;2023-02-17T14:00:47;100953.70;;;14.14;100.00
62948;BME280;51940;52.126;-0.994;2023-02-17T14:03:25;100953.90;;;14.19;100.00
62948;BME280;51940;52.126;-0.994;2023-02-17T14:05:55;100956.69;;;14.22;100.00
62948;BME280;51940;52.126;-0.994;2023-02-17T14:11:26;100960.27;;;14.17;100.00
62948;BME280;51940;52.126;-0.994;2023-02-17T14:13:55;100964.90;;;14.11;100.00
62948;BME280;51940;52.126;-0.994;2023-02-17T14:16:38;100968.79;;;14.07;100.00
62948;BME280;51940;52.126;-0.994;2023-02-17T14:19:05;100970.84;;;14.04;100.00
62948;BME280;51940;52.126;-0.994;2023-02-17T14:21:31;100972.33;;;14.03;100.00